Time;durP1;ratioP1;P1;durP2;ratioP2;P2;SDS_P1;SDS_P2;PMS_P1;PMS_P2;Temp;Humidity;BMP_temperature;BMP_pressure;BME280_temperature;BME280_humidity;BME280_pressure;Samples;Min_cycle;Max_cycle;Signal;HPM_P1;HPM_P2
2021/06/11 05:37:26;;;;;;;58.40;13.00;;;20.20;99.90;;;;;;4515551;24;20489;-82
2021/06/11 05:39:52;;;;;;;62.57;13.93;;;20.50;99.90;;;;;;4860100;29;20875;-78
2021/06/11 05:42:19;;;;;;;61.97;14.90;;;20.80;99.90;;;;;;4860230;29;20512;-80
2021/06/11 05:44:46;;;;;;;61.70;14.50;;;20.90;99.90;;;;;;4860387;29;20833;-80
2021/06/11 05:47:12;;;;;;;66.00;17.97;;;21.40;99.00;;;;;;4860523;29;20469;-81
2021/06/11 05:49:39;;;;;;;66.70;21.40;;;21.70;90.30;;;;;;4859332;29;20476;-78
2021/06/11 05:52:07;;;;;;;70.07;20.97;;;21.90;87.80;;;;;;4860500;29;20833;-76
2021/06/11 05:54:33;;;;;;;73.10;27.77;;;22.10;83.30;;;;;;4860386;29;20997;-77
2021/06/11 05:56:59;;;;;;;72.27;26.53;;;22.40;79.30;;;;;;4860354;29;20460;-77
2021/06/11 05:59:26;;;;;;;75.87;25.07;;;22.20;80.10;;;;;;4860599;29;20464;-77
2021/06/11 06:01:52;;;;;;;75.50;25.60;;;22.30;73.50;;;;;;4860473;29;20472;-76
2021/06/11 06:04:18;;;;;;;75.67;25.77;;;22.40;75.50;;;;;;4859155;29;20464;-76
2021/06/11 06:06:44;;;;;;;81.20;23.93;;;22.50;71.30;;;;;;4860310;29;20460;-76
2021/06/11 06:09:12;;;;;;;75.13;22.90;;;22.90;64.50;;;;;;4860357;29;20431;-76
2021/06/11 06:11:38;;;;;;;79.83;26.10;;;23.30;56.30;;;;;;4860143;29;20468;-76
2021/06/11 06:14:05;;;;;;;80.80;25.60;;;23.30;56.30;;;;;;4860353;29;20435;-76
2021/06/11 06:16:31;;;;;;;76.30;27.20;;;23.70;55.50;;;;;;4860319;29;20526;-77
2021/06/11 06:18:59;;;;;;;80.90;31.27;;;23.60;51.70;;;;;;4858882;29;20519;-76
2021/06/11 06:21:25;;;;;;;84.33;37.43;;;23.90;53.70;;;;;;4856823;29;20532;-76
2021/06/11 06:23:52;;;;;;;86.43;44.33;;;24.50;44.90;;;;;;4858871;29;20465;-76
2021/06/11 06:26:19;;;;;;;85.00;39.40;;;24.40;45.00;;;;;;4858726;29;21148;-76
2021/06/11 06:28:46;;;;;;;82.10;28.10;;;24.00;41.70;;;;;;4858833;29;20535;-76
2021/06/11 06:31:12;;;;;;;84.07;26.90;;;24.00;43.80;;;;;;4858389;29;20809;-76
2021/06/11 06:33:38;;;;;;;84.50;24.93;;;24.00;45.80;;;;;;4857850;29;20473;-76
2021/06/11 06:36:06;;;;;;;84.47;29.23;;;24.40;41.30;;;;;;4858557;29;20576;-76
2021/06/11 06:38:33;;;;;;;84.23;29.43;;;24.30;42.30;;;;;;4858825;29;20464;-76
2021/06/11 06:41:00;;;;;;;83.30;24.17;;;24.30;42.30;;;;;;4858765;29;20469;-76
2021/06/11 06:43:29;;;;;;;85.60;26.33;;;24.20;40.60;;;;;;4858863;29;20554;-76
2021/06/11 06:45:56;;;;;;;86.93;24.20;;;24.30;42.30;;;;;;4858803;29;20471;-76
2021/06/11 06:48:22;;;;;;;83.97;25.60;;;24.50;39.50;;;;;;4857606;29;20443;-76
2021/06/11 06:50:49;;;;;;;84.40;33.80;;;24.80;38.90;;;;;;4858700;29;20590;-76
2021/06/11 06:53:18;;;;;;;130.73;117.67;;;25.10;38.50;;;;;;4861699;29;20839;-76
2021/06/11 06:55:45;;;;;;;141.87;128.50;;;25.00;32.00;;;;;;4861929;29;20834;-76
2021/06/11 06:58:11;;;;;;;123.80;111.40;;;25.00;38.70;;;;;;4861922;29;20445;-77
2021/06/11 07:00:39;;;;;;;109.37;84.80;;;24.80;36.20;;;;;;4861904;29;20814;-76
2021/06/11 07:03:05;;;;;;;99.20;63.20;;;24.90;37.80;;;;;;4860794;29;20438;-76
2021/06/11 07:05:33;;;;;;;98.70;80.50;;;24.80;34.90;;;;;;4861640;29;20925;-77
2021/06/11 07:07:59;;;;;;;96.10;76.43;;;24.50;32.40;;;;;;4861599;29;20464;-77
2021/06/11 07:10:26;;;;;;;106.33;89.20;;;24.50;37.70;;;;;;4861431;29;20435;-76
2021/06/11 07:12:52;;;;;;;104.17;91.63;;;24.50;34.20;;;;;;4861830;29;20456;-77
2021/06/11 07:15:19;;;;;;;118.67;106.70;;;24.60;39.60;;;;;;4861809;29;20851;-77
2021/06/11 07:17:46;;;;;;;102.93;82.93;;;24.00;39.00;;;;;;4860371;29;20443;-77
2021/06/11 07:20:13;;;;;;;98.67;85.53;;;24.20;43.60;;;;;;4861668;29;20467;-76
2021/06/11 07:22:39;;;;;;;81.60;18.87;;;23.70;42.10;;;;;;4861261;29;20435;-76
2021/06/11 07:25:07;;;;;;;79.93;19.43;;;23.70;38.80;;;;;;4861705;29;20443;-77
2021/06/11 07:27:34;;;;;;;80.50;20.30;;;23.80;41.30;;;;;;4861646;29;20442;-77
2021/06/11 07:30:02;;;;;;;78.80;23.03;;;24.00;36.00;;;;;;4861487;29;20461;-76
2021/06/11 07:32:29;;;;;;;77.33;19.40;;;24.10;39.20;;;;;;4861577;29;20447;-77
2021/06/11 07:34:56;;;;;;;83.43;17.23;;;24.00;30.40;;;;;;4859882;29;20624;-76
2021/06/11 07:37:23;;;;;;;76.23;19.00;;;23.80;32.70;;;;;;4861206;29;20514;-77
2021/06/11 07:39:49;;;;;;;77.30;16.83;;;24.00;37.60;;;;;;4861160;29;20464;-76
2021/06/11 07:42:16;;;;;;;76.27;17.33;;;24.20;37.30;;;;;;4859333;29;20487;-76
2021/06/11 07:44:42;;;;;;;74.47;17.07;;;24.90;33.70;;;;;;4861695;29;20465;-76
2021/06/11 07:47:09;;;;;;;74.63;17.80;;;24.90;27.80;;;;;;4861787;29;20464;-77
2021/06/11 07:49:37;;;;;;;77.10;18.57;;;24.70;30.40;;;;;;4860252;29;20467;-77
2021/06/11 07:52:06;;;;;;;77.70;18.57;;;25.30;28.40;;;;;;4861877;29;20496;-76
2021/06/11 07:54:32;;;;;;;80.97;18.00;;;25.60;26.60;;;;;;4861564;29;20935;-76
2021/06/11 07:56:59;;;;;;;80.90;19.67;;;25.50;23.60;;;;;;4861267;29;20520;-76
2021/06/11 07:59:25;;;;;;;77.23;18.67;;;25.30;26.50;;;;;;4861463;29;20498;-77
2021/06/11 08:01:51;;;;;;;77.17;19.50;;;25.40;24.10;;;;;;4861497;29;20462;-76
2021/06/11 08:04:17;;;;;;;79.53;17.50;;;25.10;27.00;;;;;;4859739;29;20860;-76
2021/06/11 08:06:44;;;;;;;76.47;18.73;;;25.30;28.00;;;;;;4861556;29;20471;-76
2021/06/11 08:09:12;;;;;;;79.37;19.07;;;25.30;30.90;;;;;;4861504;29;21164;-76
2021/06/11 08:11:38;;;;;;;76.20;18.40;;;25.60;27.60;;;;;;4860834;29;21055;-76
2021/06/11 08:14:04;;;;;;;77.30;19.53;;;25.80;26.00;;;;;;4859163;29;20438;-76
2021/06/11 08:16:31;;;;;;;78.97;21.17;;;26.10;23.90;;;;;;4861768;29;20979;-76
2021/06/11 08:18:57;;;;;;;79.17;20.00;;;25.60;21.80;;;;;;4860535;29;20446;-77
2021/06/11 08:21:23;;;;;;;77.37;18.67;;;25.30;23.40;;;;;;4861942;29;20471;-77
2021/06/11 08:23:49;;;;;;;73.17;15.80;;;25.80;23.70;;;;;;4861815;29;20972;-77
2021/06/11 08:26:17;;;;;;;78.40;18.00;;;25.50;23.00;;;;;;4861815;29;20528;-76
2021/06/11 08:28:44;;;;;;;74.33;16.80;;;25.50;27.60;;;;;;4861656;29;20511;-76
2021/06/11 08:31:10;;;;;;;72.47;16.10;;;25.70;26.20;;;;;;4861788;29;20472;-76
2021/06/11 08:33:37;;;;;;;72.77;16.00;;;25.40;23.50;;;;;;4860431;29;20464;-77
2021/06/11 08:36:04;;;;;;;73.27;15.50;;;25.60;23.30;;;;;;4861393;29;20987;-76
2021/06/11 08:38:30;;;;;;;74.50;16.57;;;25.50;22.00;;;;;;4861695;29;20501;-76
2021/06/11 08:40:56;;;;;;;74.40;16.10;;;25.70;20.50;;;;;;4861590;29;20460;-76
2021/06/11 08:43:24;;;;;;;75.83;20.07;;;26.40;18.80;;;;;;4861602;29;20877;-77
2021/06/11 08:45:51;;;;;;;74.47;20.20;;;26.20;21.60;;;;;;4861523;29;20460;-76
2021/06/11 08:48:20;;;;;;;79.23;27.23;;;26.10;21.80;;;;;;4860188;29;20537;-76
2021/06/11 08:50:46;;;;;;;79.07;28.70;;;26.40;16.50;;;;;;4861459;29;20935;-76
2021/06/11 08:53:13;;;;;;;77.67;20.97;;;25.90;16.30;;;;;;4861435;29;20464;-77
2021/06/11 09:20:03;;;;;;;76.27;20.23;;;26.80;15.90;;;;;;5328967;24;20981;-77
2021/06/11 09:22:37;;;;;;;77.57;24.40;;;27.50;10.90;;;;;;4824244;29;20493;-77
2021/06/11 09:25:26;;;;;;;76.87;21.30;;;26.90;14.50;;;;;;4823982;29;20542;-75
2021/06/11 09:27:55;;;;;;;75.37;21.57;;;26.90;13.80;;;;;;4824038;29;20462;-77
2021/06/11 09:30:23;;;;;;;75.77;22.03;;;27.30;13.70;;;;;;4823977;29;20547;-76
2021/06/11 09:33:08;;;;;;;76.80;18.80;;;27.60;11.10;;;;;;4802069;29;20427;-77
2021/06/11 09:35:39;;;;;;;76.10;23.13;;;27.70;8.70;;;;;;4824110;29;20475;-76
2021/06/11 09:38:24;;;;;;;79.27;20.60;;;28.00;14.00;;;;;;4824006;29;20432;-75
2021/06/11 09:41:04;;;;;;;77.87;20.73;;;27.60;9.50;;;;;;4824058;29;20440;-76
2021/06/11 09:43:32;;;;;;;76.07;19.80;;;28.00;10.20;;;;;;4821478;29;20632;-76
2021/06/11 09:46:01;;;;;;;78.50;25.67;;;27.90;7.80;;;;;;4822170;29;20470;-76
2021/06/11 09:48:28;;;;;;;78.90;32.57;;;28.80;6.30;;;;;;4821032;29;20962;-76
2021/06/11 09:50:57;;;;;;;90.67;35.07;;;28.80;5.90;;;;;;4822490;29;21078;-76
2021/06/11 10:38:04;;;;;;;79.00;28.20;;;28.90;4.10;;;;;;4692391;30;20516;-83
2021/06/11 10:40:35;;;;;;;76.40;27.50;;;29.30;3.70;;;;;;4821781;29;20802;-83
2021/06/11 10:46:38;;;;;;;78.93;26.83;;;29.60;1.00;;;;;;4734853;30;21041;-83
2021/06/11 11:34:46;;;;;;;92.13;55.20;;;30.20;1.00;;;;;;4711152;27;20464;-84
2021/06/11 12:13:33;;;;;;;76.07;33.80;;;29.20;1.00;;;;;;5939166;24;20448;-88
2021/06/11 12:18:44;;;;;;;76.60;30.10;;;28.40;4.00;;;;;;6120049;23;20514;-84
2021/06/11 12:21:16;;;;;;;75.70;28.17;;;28.20;1.00;;;;;;6144392;23;20388;-85
2021/06/11 12:24:03;;;;;;;73.67;22.80;;;28.20;2.00;;;;;;6134702;23;20416;-83
2021/06/11 12:27:03;;;;;;;73.13;19.13;;;28.10;1.00;;;;;;6134502;23;20373;-85
2021/06/11 12:29:31;;;;;;;72.07;23.37;;;28.70;1.00;;;;;;6131763;23;20467;-85
2021/06/11 12:51:12;;;;;;;77.60;35.93;;;29.80;1.00;;;;;;5940814;24;20399;-85
2021/06/11 12:53:40;;;;;;;77.93;31.67;;;30.30;1.00;;;;;;6037427;23;20876;-80
2021/06/11 12:56:07;;;;;;;75.90;34.47;;;31.30;1.00;;;;;;6133753;23;20766;-80
2021/06/11 12:58:33;;;;;;;80.57;40.23;;;31.50;1.00;;;;;;6143832;23;20980;-79
2021/06/11 13:01:00;;;;;;;81.53;36.50;;;30.80;1.00;;;;;;6134402;23;20373;-80
2021/06/11 13:03:27;;;;;;;79.50;36.27;;;30.40;1.00;;;;;;6139812;23;20476;-80
2021/06/11 13:05:53;;;;;;;79.10;35.47;;;31.40;1.00;;;;;;6127474;23;20403;-81
2021/06/11 13:08:21;;;;;;;75.80;37.13;;;30.90;1.00;;;;;;6127706;23;20424;-81
2021/06/11 13:10:49;;;;;;;75.70;29.73;;;31.00;1.00;;;;;;6127877;23;20381;-80
2021/06/11 13:13:15;;;;;;;72.30;26.20;;;32.10;1.00;;;;;;6127555;23;20529;-81
2021/06/11 13:15:42;;;;;;;72.50;23.47;;;32.70;1.00;;;;;;6137291;23;20444;-80
2021/06/11 13:18:08;;;;;;;72.90;22.70;;;33.50;1.00;;;;;;6126206;23;20409;-80
2021/06/11 13:20:35;;;;;;;73.70;21.13;;;33.60;1.00;;;;;;6127940;23;20456;-80
2021/06/11 13:23:03;;;;;;;73.80;18.47;;;33.70;1.00;;;;;;6137557;23;20981;-80
2021/06/11 13:25:30;;;;;;;70.07;18.00;;;33.80;1.00;;;;;;6127506;23;20439;-79
2021/06/11 13:27:58;;;;;;;70.40;13.50;;;35.50;1.00;;;;;;6128337;23;20402;-79
2021/06/11 13:30:24;;;;;;;68.90;10.90;;;35.30;1.00;;;;;;6137806;23;20485;-79
2021/06/11 13:32:50;;;;;;;71.50;11.90;;;34.30;1.00;;;;;;6126205;23;20502;-80
2021/06/11 13:35:18;;;;;;;72.63;11.90;;;34.60;1.00;;;;;;6127756;23;20408;-79
2021/06/11 13:37:44;;;;;;;73.00;12.20;;;33.30;1.00;;;;;;6127651;23;20382;-80
2021/06/11 13:40:12;;;;;;;74.00;11.93;;;33.60;1.00;;;;;;6137630;23;20421;-80
2021/06/11 13:42:41;;;;;;;72.43;14.20;;;32.90;1.00;;;;;;6127194;23;20401;-79
2021/06/11 13:45:11;;;;;;;72.80;16.33;;;31.70;1.00;;;;;;6136841;23;20406;-79
2021/06/11 13:47:43;;;;;;;81.50;28.90;;;31.70;1.00;;;;;;6137771;23;20434;-79
2021/06/11 13:50:10;;;;;;;74.67;26.90;;;30.90;1.00;;;;;;6126696;23;20470;-79
2021/06/11 13:52:37;;;;;;;73.10;21.10;;;31.10;1.00;;;;;;6127549;23;20609;-80
2021/06/11 13:55:04;;;;;;;72.33;20.50;;;31.30;1.00;;;;;;6091262;23;20667;-79
2021/06/11 13:57:31;;;;;;;71.50;18.80;;;32.50;1.00;;;;;;6119120;23;20439;-80
2021/06/11 13:59:57;;;;;;;70.53;17.50;;;33.00;1.00;;;;;;6127393;23;20433;-79
2021/06/11 14:02:26;;;;;;;70.57;13.90;;;33.90;1.00;;;;;;6127106;23;20490;-80
2021/06/11 14:04:55;;;;;;;69.40;12.43;;;35.10;1.00;;;;;;6125808;23;20793;-80
2021/06/11 14:07:21;;;;;;;69.47;12.07;;;33.60;1.00;;;;;;6127155;23;20412;-80
2021/06/11 14:09:48;;;;;;;70.43;13.00;;;32.50;1.00;;;;;;6126886;23;20526;-80
2021/06/11 14:12:14;;;;;;;70.47;12.10;;;32.30;1.00;;;;;;6126744;23;20408;-78
2021/06/11 14:14:41;;;;;;;70.07;11.40;;;33.10;1.00;;;;;;6136647;23;20464;-79
2021/06/11 14:17:08;;;;;;;70.60;10.97;;;33.50;1.00;;;;;;6126842;23;20716;-81
2021/06/11 14:20:29;;;;;;;;;;;;;;;;;;;;;
2021/06/11 14:26:39;;;;;;;69.50;9.93;;;33.90;1.00;;;;;;6131810;23;20443;-83
2021/06/11 14:29:50;;;;;;;70.77;9.03;;;35.30;1.00;;;;;;6136532;23;20742;-84
2021/06/11 14:32:24;;;;;;;69.30;8.10;;;35.90;1.00;;;;;;6126996;23;20381;-83
2021/06/11 14:59:52;;;;;;;70.37;11.30;;;33.00;1.00;;;;;;5870825;23;20400;-82
2021/06/11 15:02:19;;;;;;;71.20;12.23;;;32.20;1.00;;;;;;6135917;23;20463;-81
2021/06/11 15:07:47;;;;;;;69.47;11.07;;;31.80;1.00;;;;;;6132051;23;20398;-79
2021/06/11 15:10:13;;;;;;;73.30;11.50;;;32.40;1.00;;;;;;6134053;23;20445;-80
2021/06/11 15:35:20;;;;;;;71.93;13.97;;;31.80;1.00;;;;;;5744273;24;20184;-78
2021/06/11 15:37:46;;;;;;;70.43;11.30;;;31.10;1.00;;;;;;5974981;24;20502;-79
2021/06/11 15:40:14;;;;;;;67.30;10.10;;;32.10;1.00;;;;;;6029709;23;20415;-79
2021/06/11 15:42:41;;;;;;;68.43;11.00;;;32.50;1.00;;;;;;6155227;23;20453;-80
2021/06/11 15:45:09;;;;;;;68.53;10.30;;;33.20;1.00;;;;;;6155582;23;20452;-80
2021/06/11 15:47:35;;;;;;;70.10;14.63;;;32.50;1.00;;;;;;6155138;23;20459;-79
2021/06/11 15:50:02;;;;;;;68.70;11.50;;;31.60;1.00;;;;;;6164261;23;20414;-80
2021/06/11 15:52:29;;;;;;;69.50;12.50;;;31.40;1.00;;;;;;6155634;23;20402;-79
2021/06/11 15:54:56;;;;;;;69.97;12.97;;;31.50;1.00;;;;;;6155799;23;20473;-80
2021/06/11 15:57:22;;;;;;;70.40;17.10;;;31.10;1.00;;;;;;6155742;23;20409;-80
2021/06/11 15:59:49;;;;;;;70.70;18.20;;;31.20;1.00;;;;;;6155664;23;20440;-79
2021/06/11 16:02:15;;;;;;;70.60;18.83;;;31.20;1.00;;;;;;6154835;23;20569;-78
2021/06/11 16:04:42;;;;;;;70.97;18.00;;;31.30;1.00;;;;;;6154437;23;20377;-79
2021/06/11 16:07:08;;;;;;;70.07;19.77;;;31.20;1.00;;;;;;6155307;23;20376;-79
2021/06/11 16:09:36;;;;;;;70.37;22.97;;;30.70;1.00;;;;;;6155558;23;20406;-78
2021/06/11 16:12:02;;;;;;;73.80;30.00;;;30.60;1.00;;;;;;6155332;23;20412;-78
2021/06/11 16:14:29;;;;;;;73.90;29.90;;;30.00;1.00;;;;;;6155178;23;20473;-80
2021/06/11 16:16:55;;;;;;;73.87;31.03;;;29.90;1.00;;;;;;6155050;23;20981;-80
2021/06/11 16:19:21;;;;;;;73.00;29.37;;;30.20;1.00;;;;;;6164214;23;20426;-80
2021/06/11 16:21:48;;;;;;;74.00;29.73;;;30.30;1.00;;;;;;6154923;23;20409;-80
2021/06/11 16:24:14;;;;;;;74.67;31.80;;;30.70;1.00;;;;;;6165218;23;20711;-81
2021/06/11 16:26:42;;;;;;;76.30;33.90;;;31.00;1.00;;;;;;6155450;23;20377;-81
2021/06/11 16:29:08;;;;;;;77.20;34.93;;;30.60;1.00;;;;;;6165221;23;20775;-80
2021/06/11 16:31:35;;;;;;;76.97;37.93;;;29.60;1.00;;;;;;6165054;23;21042;-81
2021/06/11 16:34:01;;;;;;;77.77;37.77;;;29.40;1.00;;;;;;6153819;23;20394;-80
2021/06/11 16:36:27;;;;;;;74.87;30.90;;;29.20;1.00;;;;;;6155590;23;20459;-80
2021/06/11 16:38:54;;;;;;;72.80;28.83;;;29.80;1.00;;;;;;6155997;23;20402;-80
2021/06/11 16:41:20;;;;;;;73.00;29.03;;;30.40;1.00;;;;;;6167183;23;20409;-80
2021/06/11 16:43:48;;;;;;;72.00;27.47;;;30.50;1.00;;;;;;6157084;23;20499;-80
2021/06/11 16:46:14;;;;;;;72.50;28.77;;;30.20;1.00;;;;;;6157288;23;20471;-82
2021/06/11 16:48:42;;;;;;;72.50;27.43;;;29.90;1.00;;;;;;6155355;23;20882;-81
2021/06/11 16:51:08;;;;;;;73.20;27.47;;;30.20;1.00;;;;;;6157280;23;20440;-81
2021/06/11 16:53:34;;;;;;;71.37;23.27;;;30.80;1.00;;;;;;6156495;23;20433;-81
2021/06/11 16:56:01;;;;;;;74.00;25.07;;;30.80;1.00;;;;;;6166922;23;20406;-79
2021/06/11 16:58:27;;;;;;;71.67;22.70;;;30.80;1.00;;;;;;6156922;23;20417;-81
2021/06/11 17:00:55;;;;;;;70.30;22.97;;;31.00;1.00;;;;;;6166743;23;20402;-80
2021/06/11 17:03:21;;;;;;;73.67;25.90;;;31.40;1.00;;;;;;6165182;23;20500;-80
2021/06/11 17:05:48;;;;;;;75.80;27.10;;;31.80;1.00;;;;;;6156965;23;20460;-80
2021/06/11 17:08:14;;;;;;;73.00;26.70;;;31.90;1.00;;;;;;6156670;23;20380;-80
2021/06/11 17:10:41;;;;;;;76.30;25.93;;;30.80;1.00;;;;;;6157150;23;20428;-81
2021/06/11 17:13:08;;;;;;;72.60;22.73;;;30.50;1.00;;;;;;6166104;23;20976;-80
2021/06/11 17:15:35;;;;;;;71.00;20.40;;;30.30;1.00;;;;;;6156735;23;20697;-80
2021/06/11 17:18:03;;;;;;;69.97;18.80;;;30.60;1.00;;;;;;6155100;23;20417;-79
2021/06/11 17:20:31;;;;;;;68.90;16.20;;;30.70;1.00;;;;;;6156966;23;20404;-80
2021/06/11 17:23:00;;;;;;;69.17;17.60;;;30.70;1.00;;;;;;6156831;23;20412;-79
2021/06/11 17:25:29;;;;;;;68.37;14.17;;;29.80;1.00;;;;;;6156803;23;20763;-79
2021/06/11 17:27:56;;;;;;;70.17;18.73;;;29.20;1.00;;;;;;6156781;23;20402;-79
2021/06/11 17:30:25;;;;;;;71.40;23.57;;;29.50;1.00;;;;;;6156584;23;20387;-81
2021/06/11 17:32:52;;;;;;;69.50;21.10;;;30.20;1.00;;;;;;6155383;23;20453;-79
2021/06/11 17:35:22;;;;;;;73.20;29.00;;;30.10;1.00;;;;;;6156424;23;20381;-80
2021/06/11 17:37:56;;;;;;;75.53;38.20;;;30.10;1.00;;;;;;6156954;23;20402;-79
2021/06/11 17:40:22;;;;;;;78.13;38.63;;;28.90;1.00;;;;;;6166745;23;21057;-80
2021/06/11 17:42:53;;;;;;;78.57;40.67;;;30.10;1.00;;;;;;6161770;23;20461;-79
2021/06/11 17:45:28;;;;;;;76.93;38.10;;;30.50;1.00;;;;;;6164771;23;20384;-79
2021/06/11 21:05:56;;;;;;;42.20;8.70;;;19.80;99.90;;;;;;6158612;23;20959;-78
2021/06/11 21:08:22;;;;;;;44.00;8.80;;;19.70;99.90;;;;;;6127568;23;20442;-79
